sensor_id;sensor_type;location;lat;lon;timestamp;P1;durP1;ratioP1;P2;durP2;ratioP2
12925;SDS011;6529;50.566;9.774;2023-09-18T00:02:07;7.85;;;4.47;;
12925;SDS011;6529;50.566;9.774;2023-09-18T00:04:32;4.70;;;4.20;;
12925;SDS011;6529;50.566;9.774;2023-09-18T00:06:58;6.13;;;4.30;;
12925;SDS011;6529;50.566;9.774;2023-09-18T00:09:24;4.93;;;4.43;;
12925;SDS011;6529;50.566;9.774;2023-09-18T00:11:50;5.50;;;4.20;;
12925;SDS011;6529;50.566;9.774;2023-09-18T00:14:15;6.97;;;4.35;;
12925;SDS011;6529;50.566;9.774;2023-09-18T00:16:41;5.88;;;4.30;;
12925;SDS011;6529;50.566;9.774;2023-09-18T00:19:06;5.00;;;4.50;;
12925;SDS011;6529;50.566;9.774;2023-09-18T00:21:35;5.45;;;4.35;;
12925;SDS011;6529;50.566;9.774;2023-09-18T00:24:01;5.33;;;4.33;;
12925;SDS011;6529;50.566;9.774;2023-09-18T00:26:27;4.63;;;4.22;;
12925;SDS011;6529;50.566;9.774;2023-09-18T00:28:53;4.97;;;3.97;;
12925;SDS011;6529;50.566;9.774;2023-09-18T00:31:19;5.87;;;4.37;;
12925;SDS011;6529;50.566;9.774;2023-09-18T00:33:44;5.75;;;4.15;;
12925;SDS011;6529;50.566;9.774;2023-09-18T00:36:10;6.45;;;4.45;;
12925;SDS011;6529;50.566;9.774;2023-09-18T00:38:35;5.93;;;4.47;;
12925;SDS011;6529;50.566;9.774;2023-09-18T00:41:01;6.27;;;4.03;;
12925;SDS011;6529;50.566;9.774;2023-09-18T00:43:27;6.20;;;4.67;;
12925;SDS011;6529;50.566;9.774;2023-09-18T00:45:52;9.52;;;4.30;;
12925;SDS011;6529;50.566;9.774;2023-09-18T00:48:18;6.13;;;4.07;;
12925;SDS011;6529;50.566;9.774;2023-09-18T00:50:45;5.10;;;4.37;;
12925;SDS011;6529;50.566;9.774;2023-09-18T00:53:16;4.73;;;4.00;;
12925;SDS011;6529;50.566;9.774;2023-09-18T00:55:45;5.90;;;4.60;;
12925;SDS011;6529;50.566;9.774;2023-09-18T00:58:11;5.27;;;4.20;;
12925;SDS011;6529;50.566;9.774;2023-09-18T01:00:37;4.80;;;4.30;;
12925;SDS011;6529;50.566;9.774;2023-09-18T01:03:03;4.83;;;4.33;;
12925;SDS011;6529;50.566;9.774;2023-09-18T01:05:33;5.30;;;4.70;;
12925;SDS011;6529;50.566;9.774;2023-09-18T01:07:59;5.38;;;4.40;;
12925;SDS011;6529;50.566;9.774;2023-09-18T01:10:25;7.22;;;4.50;;
12925;SDS011;6529;50.566;9.774;2023-09-18T01:13:04;4.88;;;4.30;;
12925;SDS011;6529;50.566;9.774;2023-09-18T01:15:40;4.97;;;4.47;;
12925;SDS011;6529;50.566;9.774;2023-09-18T01:18:19;5.82;;;4.30;;
12925;SDS011;6529;50.566;9.774;2023-09-18T01:20:45;5.43;;;4.63;;
12925;SDS011;6529;50.566;9.774;2023-09-18T01:23:11;4.55;;;4.15;;
12925;SDS011;6529;50.566;9.774;2023-09-18T01:25:37;5.38;;;4.25;;
12925;SDS011;6529;50.566;9.774;2023-09-18T01:28:02;4.35;;;3.95;;
12925;SDS011;6529;50.566;9.774;2023-09-18T01:30:28;4.55;;;4.15;;
12925;SDS011;6529;50.566;9.774;2023-09-18T01:32:55;4.63;;;4.05;;
12925;SDS011;6529;50.566;9.774;2023-09-18T01:35:24;4.68;;;4.28;;
12925;SDS011;6529;50.566;9.774;2023-09-18T01:37:55;4.40;;;4.00;;
12925;SDS011;6529;50.566;9.774;2023-09-18T01:40:21;6.22;;;4.30;;
12925;SDS011;6529;50.566;9.774;2023-09-18T01:42:49;4.50;;;4.10;;
12925;SDS011;6529;50.566;9.774;2023-09-18T01:45:15;4.80;;;3.88;;
12925;SDS011;6529;50.566;9.774;2023-09-18T01:47:40;5.38;;;4.28;;
12925;SDS011;6529;50.566;9.774;2023-09-18T01:50:06;4.35;;;3.95;;
12925;SDS011;6529;50.566;9.774;2023-09-18T01:52:32;4.43;;;4.03;;
12925;SDS011;6529;50.566;9.774;2023-09-18T01:54:59;4.20;;;3.90;;
12925;SDS011;6529;50.566;9.774;2023-09-18T01:57:25;3.97;;;3.67;;
12925;SDS011;6529;50.566;9.774;2023-09-18T01:59:51;4.38;;;3.97;;
12925;SDS011;6529;50.566;9.774;2023-09-18T02:02:16;4.18;;;3.78;;
12925;SDS011;6529;50.566;9.774;2023-09-18T02:04:42;4.35;;;3.95;;
12925;SDS011;6529;50.566;9.774;2023-09-18T02:07:08;5.32;;;4.25;;
12925;SDS011;6529;50.566;9.774;2023-09-18T02:09:34;4.47;;;3.90;;
12925;SDS011;6529;50.566;9.774;2023-09-18T02:12:00;4.47;;;4.07;;
12925;SDS011;6529;50.566;9.774;2023-09-18T02:14:25;4.50;;;4.10;;
12925;SDS011;6529;50.566;9.774;2023-09-18T02:16:51;4.70;;;4.00;;
12925;SDS011;6529;50.566;9.774;2023-09-18T02:19:16;4.28;;;3.70;;
12925;SDS011;6529;50.566;9.774;2023-09-18T02:21:43;4.13;;;3.78;;
12925;SDS011;6529;50.566;9.774;2023-09-18T02:24:09;4.13;;;3.83;;
12925;SDS011;6529;50.566;9.774;2023-09-18T02:26:34;4.30;;;3.70;;
12925;SDS011;6529;50.566;9.774;2023-09-18T02:29:02;4.72;;;4.22;;
12925;SDS011;6529;50.566;9.774;2023-09-18T02:31:30;4.07;;;3.75;;
12925;SDS011;6529;50.566;9.774;2023-09-18T02:33:56;4.20;;;3.80;;
12925;SDS011;6529;50.566;9.774;2023-09-18T02:36:22;4.63;;;4.22;;
12925;SDS011;6529;50.566;9.774;2023-09-18T02:38:47;4.65;;;4.15;;
12925;SDS011;6529;50.566;9.774;2023-09-18T02:41:13;3.88;;;3.58;;
12925;SDS011;6529;50.566;9.774;2023-09-18T02:43:38;4.03;;;3.70;;
12925;SDS011;6529;50.566;9.774;2023-09-18T02:46:04;4.40;;;4.00;;
12925;SDS011;6529;50.566;9.774;2023-09-18T02:48:31;4.05;;;3.35;;
12925;SDS011;6529;50.566;9.774;2023-09-18T02:50:57;4.28;;;3.88;;
12925;SDS011;6529;50.566;9.774;2023-09-18T02:53:24;4.22;;;3.83;;
12925;SDS011;6529;50.566;9.774;2023-09-18T02:55:50;4.07;;;3.58;;
12925;SDS011;6529;50.566;9.774;2023-09-18T02:58:17;3.97;;;3.67;;
12925;SDS011;6529;50.566;9.774;2023-09-18T03:00:44;4.28;;;3.88;;
12925;SDS011;6529;50.566;9.774;2023-09-18T03:03:11;4.22;;;3.83;;
12925;SDS011;6529;50.566;9.774;2023-09-18T03:05:38;4.38;;;3.97;;
12925;SDS011;6529;50.566;9.774;2023-09-18T03:08:04;4.03;;;3.63;;
12925;SDS011;6529;50.566;9.774;2023-09-18T03:10:34;4.03;;;3.72;;
12925;SDS011;6529;50.566;9.774;2023-09-18T03:13:01;4.60;;;4.00;;
12925;SDS011;6529;50.566;9.774;2023-09-18T03:15:27;4.10;;;3.80;;
12925;SDS011;6529;50.566;9.774;2023-09-18T03:17:53;4.05;;;3.65;;
12925;SDS011;6529;50.566;9.774;2023-09-18T03:20:21;4.20;;;3.63;;
12925;SDS011;6529;50.566;9.774;2023-09-18T03:22:47;4.20;;;3.78;;
12925;SDS011;6529;50.566;9.774;2023-09-18T03:25:13;3.92;;;3.53;;
12925;SDS011;6529;50.566;9.774;2023-09-18T03:27:39;4.50;;;3.85;;
12925;SDS011;6529;50.566;9.774;2023-09-18T03:30:05;4.32;;;3.92;;
12925;SDS011;6529;50.566;9.774;2023-09-18T03:32:31;4.03;;;3.63;;
12925;SDS011;6529;50.566;9.774;2023-09-18T03:34:57;3.80;;;3.42;;
12925;SDS011;6529;50.566;9.774;2023-09-18T03:37:23;4.43;;;4.03;;
12925;SDS011;6529;50.566;9.774;2023-09-18T03:39:48;4.28;;;3.88;;
12925;SDS011;6529;50.566;9.774;2023-09-18T03:42:14;4.03;;;3.72;;
12925;SDS011;6529;50.566;9.774;2023-09-18T03:44:39;4.93;;;4.40;;
12925;SDS011;6529;50.566;9.774;2023-09-18T03:47:05;4.88;;;4.22;;
12925;SDS011;6529;50.566;9.774;2023-09-18T03:49:31;5.13;;;4.63;;
12925;SDS011;6529;50.566;9.774;2023-09-18T03:51:56;9.10;;;4.68;;
12925;SDS011;6529;50.566;9.774;2023-09-18T03:54:22;5.20;;;4.68;;
12925;SDS011;6529;50.566;9.774;2023-09-18T03:56:47;4.93;;;4.40;;
12925;SDS011;6529;50.566;9.774;2023-09-18T03:59:13;5.22;;;4.60;;
12925;SDS011;6529;50.566;9.774;2023-09-18T04:01:39;6.22;;;4.80;;
12925;SDS011;6529;50.566;9.774;2023-09-18T04:04:05;5.32;;;4.70;;
12925;SDS011;6529;50.566;9.774;2023-09-18T04:09:22;6.97;;;5.32;;
12925;SDS011;6529;50.566;9.774;2023-09-18T04:11:48;5.47;;;4.75;;
12925;SDS011;6529;50.566;9.774;2023-09-18T04:14:14;5.80;;;4.78;;
12925;SDS011;6529;50.566;9.774;2023-09-18T04:16:39;5.95;;;4.93;;
12925;SDS011;6529;50.566;9.774;2023-09-18T04:19:07;5.80;;;5.18;;
12925;SDS011;6529;50.566;9.774;2023-09-18T04:21:33;6.53;;;5.38;;
12925;SDS011;6529;50.566;9.774;2023-09-18T04:23:58;5.40;;;4.85;;
12925;SDS011;6529;50.566;9.774;2023-09-18T04:26:24;6.20;;;5.13;;
12925;SDS011;6529;50.566;9.774;2023-09-18T04:28:54;5.75;;;5.10;;
12925;SDS011;6529;50.566;9.774;2023-09-18T04:31:21;5.38;;;4.88;;
12925;SDS011;6529;50.566;9.774;2023-09-18T04:33:46;6.65;;;5.13;;
12925;SDS011;6529;50.566;9.774;2023-09-18T04:36:12;5.22;;;4.47;;
12925;SDS011;6529;50.566;9.774;2023-09-18T04:38:37;5.40;;;4.90;;
12925;SDS011;6529;50.566;9.774;2023-09-18T04:41:03;5.78;;;4.70;;
12925;SDS011;6529;50.566;9.774;2023-09-18T04:43:28;5.88;;;4.75;;
12925;SDS011;6529;50.566;9.774;2023-09-18T04:45:55;4.95;;;4.30;;
12925;SDS011;6529;50.566;9.774;2023-09-18T04:48:21;4.93;;;4.53;;
12925;SDS011;6529;50.566;9.774;2023-09-18T04:50:46;6.35;;;4.75;;
12925;SDS011;6529;50.566;9.774;2023-09-18T04:53:13;5.32;;;4.82;;
12925;SDS011;6529;50.566;9.774;2023-09-18T04:55:39;4.80;;;4.30;;
12925;SDS011;6529;50.566;9.774;2023-09-18T04:58:04;5.60;;;4.97;;
12925;SDS011;6529;50.566;9.774;2023-09-18T05:00:31;6.65;;;4.50;;
12925;SDS011;6529;50.566;9.774;2023-09-18T05:02:58;5.45;;;4.40;;
12925;SDS011;6529;50.566;9.774;2023-09-18T05:05:26;6.50;;;4.47;;
12925;SDS011;6529;50.566;9.774;2023-09-18T05:07:52;4.82;;;4.07;;
12925;SDS011;6529;50.566;9.774;2023-09-18T05:10:17;6.85;;;4.20;;
12925;SDS011;6529;50.566;9.774;2023-09-18T05:12:43;4.60;;;3.80;;
12925;SDS011;6529;50.566;9.774;2023-09-18T05:15:08;4.93;;;4.22;;
12925;SDS011;6529;50.566;9.774;2023-09-18T05:17:42;6.18;;;4.47;;
12925;SDS011;6529;50.566;9.774;2023-09-18T05:20:12;5.47;;;4.10;;
12925;SDS011;6529;50.566;9.774;2023-09-18T05:22:39;4.65;;;4.20;;
12925;SDS011;6529;50.566;9.774;2023-09-18T05:25:05;6.20;;;4.55;;
12925;SDS011;6529;50.566;9.774;2023-09-18T05:27:31;4.57;;;4.13;;
12925;SDS011;6529;50.566;9.774;2023-09-18T05:29:57;6.72;;;4.50;;
12925;SDS011;6529;50.566;9.774;2023-09-18T05:32:23;6.00;;;4.28;;
12925;SDS011;6529;50.566;9.774;2023-09-18T05:34:48;6.00;;;4.60;;
12925;SDS011;6529;50.566;9.774;2023-09-18T05:37:14;7.30;;;3.97;;
12925;SDS011;6529;50.566;9.774;2023-09-18T05:39:40;4.80;;;3.65;;
12925;SDS011;6529;50.566;9.774;2023-09-18T05:42:06;6.32;;;3.85;;
12925;SDS011;6529;50.566;9.774;2023-09-18T05:44:31;4.63;;;3.40;;
12925;SDS011;6529;50.566;9.774;2023-09-18T05:46:58;8.07;;;3.75;;
12925;SDS011;6529;50.566;9.774;2023-09-18T05:49:24;6.05;;;3.53;;
12925;SDS011;6529;50.566;9.774;2023-09-18T05:51:49;9.20;;;3.45;;
12925;SDS011;6529;50.566;9.774;2023-09-18T05:54:15;6.22;;;3.60;;
12925;SDS011;6529;50.566;9.774;2023-09-18T05:56:40;4.70;;;3.45;;
12925;SDS011;6529;50.566;9.774;2023-09-18T05:59:06;5.38;;;3.28;;
12925;SDS011;6529;50.566;9.774;2023-09-18T06:01:32;5.25;;;3.03;;
12925;SDS011;6529;50.566;9.774;2023-09-18T06:03:58;6.85;;;3.22;;
12925;SDS011;6529;50.566;9.774;2023-09-18T06:06:23;6.10;;;3.15;;
12925;SDS011;6529;50.566;9.774;2023-09-18T06:08:50;4.70;;;2.78;;
12925;SDS011;6529;50.566;9.774;2023-09-18T06:11:18;4.47;;;2.70;;
12925;SDS011;6529;50.566;9.774;2023-09-18T06:13:44;5.97;;;3.03;;
12925;SDS011;6529;50.566;9.774;2023-09-18T06:16:10;7.07;;;2.88;;
12925;SDS011;6529;50.566;9.774;2023-09-18T06:18:37;7.78;;;3.58;;
12925;SDS011;6529;50.566;9.774;2023-09-18T06:21:03;6.28;;;3.00;;
12925;SDS011;6529;50.566;9.774;2023-09-18T06:23:29;5.82;;;3.30;;
12925;SDS011;6529;50.566;9.774;2023-09-18T06:25:55;4.95;;;3.08;;
12925;SDS011;6529;50.566;9.774;2023-09-18T06:28:22;5.45;;;3.20;;
12925;SDS011;6529;50.566;9.774;2023-09-18T06:30:48;6.80;;;2.88;;
12925;SDS011;6529;50.566;9.774;2023-09-18T06:33:13;4.38;;;2.75;;
12925;SDS011;6529;50.566;9.774;2023-09-18T06:35:39;6.03;;;3.28;;
12925;SDS011;6529;50.566;9.774;2023-09-18T06:38:05;5.40;;;2.92;;
12925;SDS011;6529;50.566;9.774;2023-09-18T06:40:31;4.40;;;3.35;;
12925;SDS011;6529;50.566;9.774;2023-09-18T06:43:00;5.13;;;3.33;;
12925;SDS011;6529;50.566;9.774;2023-09-18T06:45:26;4.97;;;3.30;;
12925;SDS011;6529;50.566;9.774;2023-09-18T06:47:52;5.60;;;3.42;;
12925;SDS011;6529;50.566;9.774;2023-09-18T06:50:18;4.63;;;3.50;;
12925;SDS011;6529;50.566;9.774;2023-09-18T06:52:44;4.60;;;3.20;;
12925;SDS011;6529;50.566;9.774;2023-09-18T06:55:10;4.78;;;3.00;;
12925;SDS011;6529;50.566;9.774;2023-09-18T06:57:36;5.20;;;3.53;;
12925;SDS011;6529;50.566;9.774;2023-09-18T07:00:02;5.13;;;3.33;;
12925;SDS011;6529;50.566;9.774;2023-09-18T07:02:29;6.30;;;4.00;;
12925;SDS011;6529;50.566;9.774;2023-09-18T07:04:55;7.25;;;3.50;;
12925;SDS011;6529;50.566;9.774;2023-09-18T07:07:21;4.63;;;3.63;;
12925;SDS011;6529;50.566;9.774;2023-09-18T07:09:50;7.40;;;4.15;;
12925;SDS011;6529;50.566;9.774;2023-09-18T07:12:16;7.43;;;3.67;;
12925;SDS011;6529;50.566;9.774;2023-09-18T07:14:44;4.10;;;3.70;;
12925;SDS011;6529;50.566;9.774;2023-09-18T07:17:13;6.32;;;3.83;;
12925;SDS011;6529;50.566;9.774;2023-09-18T07:19:38;4.53;;;4.07;;
12925;SDS011;6529;50.566;9.774;2023-09-18T07:22:04;6.43;;;3.97;;
12925;SDS011;6529;50.566;9.774;2023-09-18T07:24:30;5.70;;;3.83;;
12925;SDS011;6529;50.566;9.774;2023-09-18T07:26:55;5.95;;;4.05;;
12925;SDS011;6529;50.566;9.774;2023-09-18T07:29:23;5.45;;;3.97;;
12925;SDS011;6529;50.566;9.774;2023-09-18T07:31:50;6.00;;;3.88;;
12925;SDS011;6529;50.566;9.774;2023-09-18T07:34:16;7.28;;;3.50;;
12925;SDS011;6529;50.566;9.774;2023-09-18T07:36:43;5.85;;;3.75;;
12925;SDS011;6529;50.566;9.774;2023-09-18T07:39:09;4.65;;;3.70;;
12925;SDS011;6529;50.566;9.774;2023-09-18T07:41:36;6.68;;;3.88;;
12925;SDS011;6529;50.566;9.774;2023-09-18T07:44:03;5.60;;;3.50;;
12925;SDS011;6529;50.566;9.774;2023-09-18T07:46:28;5.55;;;3.80;;
12925;SDS011;6529;50.566;9.774;2023-09-18T07:48:54;4.68;;;3.42;;
12925;SDS011;6529;50.566;9.774;2023-09-18T07:51:20;6.10;;;3.63;;
12925;SDS011;6529;50.566;9.774;2023-09-18T07:53:45;7.93;;;3.33;;
12925;SDS011;6529;50.566;9.774;2023-09-18T07:56:11;5.80;;;3.00;;
12925;SDS011;6529;50.566;9.774;2023-09-18T07:58:37;5.28;;;3.17;;
12925;SDS011;6529;50.566;9.774;2023-09-18T08:01:04;6.05;;;2.80;;
12925;SDS011;6529;50.566;9.774;2023-09-18T08:03:30;5.93;;;2.70;;
12925;SDS011;6529;50.566;9.774;2023-09-18T08:05:56;5.43;;;2.92;;
12925;SDS011;6529;50.566;9.774;2023-09-18T08:08:22;6.13;;;2.53;;
12925;SDS011;6529;50.566;9.774;2023-09-18T08:10:49;4.38;;;2.60;;
12925;SDS011;6529;50.566;9.774;2023-09-18T08:13:15;9.13;;;2.80;;
12925;SDS011;6529;50.566;9.774;2023-09-18T08:15:40;6.57;;;2.85;;
12925;SDS011;6529;50.566;9.774;2023-09-18T08:18:06;5.47;;;2.65;;
12925;SDS011;6529;50.566;9.774;2023-09-18T08:20:32;4.47;;;2.60;;
12925;SDS011;6529;50.566;9.774;2023-09-18T08:22:58;5.18;;;2.80;;
12925;SDS011;6529;50.566;9.774;2023-09-18T08:25:28;4.55;;;2.63;;
12925;SDS011;6529;50.566;9.774;2023-09-18T08:27:53;7.20;;;2.78;;
12925;SDS011;6529;50.566;9.774;2023-09-18T08:30:19;5.05;;;3.00;;
12925;SDS011;6529;50.566;9.774;2023-09-18T08:32:46;3.53;;;2.55;;
12925;SDS011;6529;50.566;9.774;2023-09-18T08:35:12;5.97;;;2.50;;
12925;SDS011;6529;50.566;9.774;2023-09-18T08:37:39;5.65;;;2.63;;
12925;SDS011;6529;50.566;9.774;2023-09-18T08:40:07;7.32;;;2.70;;
12925;SDS011;6529;50.566;9.774;2023-09-18T08:42:35;5.68;;;2.72;;
12925;SDS011;6529;50.566;9.774;2023-09-18T08:45:05;6.30;;;3.00;;
12925;SDS011;6529;50.566;9.774;2023-09-18T08:47:34;6.95;;;2.58;;
12925;SDS011;6529;50.566;9.774;2023-09-18T08:50:01;5.38;;;2.60;;
12925;SDS011;6529;50.566;9.774;2023-09-18T08:52:27;4.88;;;2.30;;
12925;SDS011;6529;50.566;9.774;2023-09-18T08:54:53;4.40;;;2.80;;
12925;SDS011;6529;50.566;9.774;2023-09-18T08:57:21;7.35;;;2.85;;
12925;SDS011;6529;50.566;9.774;2023-09-18T08:59:48;6.15;;;2.50;;
12925;SDS011;6529;50.566;9.774;2023-09-18T09:02:15;6.05;;;2.33;;
12925;SDS011;6529;50.566;9.774;2023-09-18T09:04:41;6.25;;;2.60;;
12925;SDS011;6529;50.566;9.774;2023-09-18T09:07:06;5.63;;;2.45;;
12925;SDS011;6529;50.566;9.774;2023-09-18T09:09:33;3.97;;;2.15;;
12925;SDS011;6529;50.566;9.774;2023-09-18T09:12:00;3.92;;;2.33;;
12925;SDS011;6529;50.566;9.774;2023-09-18T09:14:25;4.22;;;2.10;;
12925;SDS011;6529;50.566;9.774;2023-09-18T09:16:54;6.00;;;2.38;;
12925;SDS011;6529;50.566;9.774;2023-09-18T09:19:31;5.38;;;2.05;;
12925;SDS011;6529;50.566;9.774;2023-09-18T09:22:00;4.88;;;2.08;;
12925;SDS011;6529;50.566;9.774;2023-09-18T09:24:43;5.53;;;2.22;;
12925;SDS011;6529;50.566;9.774;2023-09-18T09:27:09;3.92;;;2.10;;
12925;SDS011;6529;50.566;9.774;2023-09-18T09:29:35;3.63;;;1.98;;
12925;SDS011;6529;50.566;9.774;2023-09-18T09:32:12;4.22;;;1.80;;
12925;SDS011;6529;50.566;9.774;2023-09-18T09:34:42;5.18;;;2.20;;
12925;SDS011;6529;50.566;9.774;2023-09-18T09:37:08;3.85;;;1.80;;
12925;SDS011;6529;50.566;9.774;2023-09-18T09:39:45;4.75;;;2.10;;
12925;SDS011;6529;50.566;9.774;2023-09-18T09:42:18;5.15;;;2.08;;
12925;SDS011;6529;50.566;9.774;2023-09-18T09:45:01;5.93;;;2.08;;
12925;SDS011;6529;50.566;9.774;2023-09-18T09:47:32;5.30;;;2.30;;
12925;SDS011;6529;50.566;9.774;2023-09-18T09:50:05;6.93;;;2.30;;
12925;SDS011;6529;50.566;9.774;2023-09-18T09:52:45;4.50;;;1.90;;
12925;SDS011;6529;50.566;9.774;2023-09-18T09:55:20;4.30;;;1.88;;
12925;SDS011;6529;50.566;9.774;2023-09-18T09:57:56;5.00;;;2.20;;
12925;SDS011;6529;50.566;9.774;2023-09-18T10:00:33;2.88;;;1.95;;
12925;SDS011;6529;50.566;9.774;2023-09-18T10:03:07;3.72;;;1.70;;
12925;SDS011;6529;50.566;9.774;2023-09-18T10:05:36;3.58;;;1.73;;
12925;SDS011;6529;50.566;9.774;2023-09-18T10:08:07;4.05;;;1.70;;
12925;SDS011;6529;50.566;9.774;2023-09-18T10:10:43;4.50;;;1.50;;
12925;SDS011;6529;50.566;9.774;2023-09-18T10:15:45;4.75;;;1.67;;
12925;SDS011;6529;50.566;9.774;2023-09-18T10:26:39;3.47;;;1.50;;
12925;SDS011;6529;50.566;9.774;2023-09-18T10:29:14;5.72;;;1.63;;
12925;SDS011;6529;50.566;9.774;2023-09-18T10:31:40;2.53;;;1.70;;
12925;SDS011;6529;50.566;9.774;2023-09-18T10:34:08;4.32;;;1.70;;
12925;SDS011;6529;50.566;9.774;2023-09-18T10:36:36;4.05;;;1.58;;
12925;SDS011;6529;50.566;9.774;2023-09-18T10:39:04;2.45;;;1.40;;
12925;SDS011;6529;50.566;9.774;2023-09-18T10:41:35;3.13;;;1.50;;
12925;SDS011;6529;50.566;9.774;2023-09-18T10:44:02;4.75;;;1.70;;
12925;SDS011;6529;50.566;9.774;2023-09-18T10:46:29;3.13;;;1.48;;
12925;SDS011;6529;50.566;9.774;2023-09-18T10:48:55;5.65;;;1.95;;
12925;SDS011;6529;50.566;9.774;2023-09-18T10:51:21;3.05;;;1.80;;
12925;SDS011;6529;50.566;9.774;2023-09-18T10:53:48;4.20;;;1.60;;
12925;SDS011;6529;50.566;9.774;2023-09-18T10:56:14;2.50;;;1.50;;
12925;SDS011;6529;50.566;9.774;2023-09-18T10:58:41;3.35;;;1.50;;
12925;SDS011;6529;50.566;9.774;2023-09-18T11:01:10;3.90;;;1.77;;
12925;SDS011;6529;50.566;9.774;2023-09-18T11:03:39;3.50;;;1.63;;
12925;SDS011;6529;50.566;9.774;2023-09-18T11:06:07;3.53;;;1.58;;
12925;SDS011;6529;50.566;9.774;2023-09-18T11:11:10;3.47;;;1.52;;
12925;SDS011;6529;50.566;9.774;2023-09-18T11:16:13;5.00;;;1.70;;
12925;SDS011;6529;50.566;9.774;2023-09-18T11:18:51;3.85;;;1.55;;
12925;SDS011;6529;50.566;9.774;2023-09-18T11:21:18;4.65;;;2.00;;
12925;SDS011;6529;50.566;9.774;2023-09-18T11:23:57;2.88;;;1.65;;
12925;SDS011;6529;50.566;9.774;2023-09-18T11:26:24;4.65;;;1.70;;
12925;SDS011;6529;50.566;9.774;2023-09-18T11:28:55;2.30;;;1.60;;
12925;SDS011;6529;50.566;9.774;2023-09-18T11:31:21;5.28;;;1.30;;
12925;SDS011;6529;50.566;9.774;2023-09-18T11:34:16;2.20;;;1.70;;
12925;SDS011;6529;50.566;9.774;2023-09-18T11:37:02;4.88;;;1.67;;
12925;SDS011;6529;50.566;9.774;2023-09-18T11:39:43;2.45;;;1.42;;
12925;SDS011;6529;50.566;9.774;2023-09-18T11:42:20;3.72;;;1.65;;
12925;SDS011;6529;50.566;9.774;2023-09-18T11:44:51;3.45;;;1.83;;
12925;SDS011;6529;50.566;9.774;2023-09-18T11:47:23;6.43;;;2.08;;
12925;SDS011;6529;50.566;9.774;2023-09-18T11:49:53;3.13;;;1.35;;
12925;SDS011;6529;50.566;9.774;2023-09-18T11:52:21;4.28;;;1.73;;
12925;SDS011;6529;50.566;9.774;2023-09-18T11:54:47;4.78;;;1.73;;
12925;SDS011;6529;50.566;9.774;2023-09-18T11:57:13;7.55;;;1.60;;
12925;SDS011;6529;50.566;9.774;2023-09-18T11:59:40;3.08;;;1.45;;
12925;SDS011;6529;50.566;9.774;2023-09-18T12:02:08;5.80;;;1.75;;
12925;SDS011;6529;50.566;9.774;2023-09-18T12:04:35;3.30;;;1.60;;
12925;SDS011;6529;50.566;9.774;2023-09-18T12:07:01;2.13;;;1.60;;
12925;SDS011;6529;50.566;9.774;2023-09-18T12:09:32;2.97;;;1.30;;
12925;SDS011;6529;50.566;9.774;2023-09-18T12:11:59;4.38;;;1.70;;
12925;SDS011;6529;50.566;9.774;2023-09-18T12:14:29;3.78;;;1.60;;
12925;SDS011;6529;50.566;9.774;2023-09-18T12:16:56;4.25;;;1.52;;
12925;SDS011;6529;50.566;9.774;2023-09-18T12:19:23;4.90;;;1.75;;
12925;SDS011;6529;50.566;9.774;2023-09-18T12:21:48;3.10;;;1.80;;
12925;SDS011;6529;50.566;9.774;2023-09-18T12:24:24;4.85;;;1.85;;
12925;SDS011;6529;50.566;9.774;2023-09-18T12:26:50;2.40;;;1.60;;
12925;SDS011;6529;50.566;9.774;2023-09-18T12:29:17;2.92;;;1.70;;
12925;SDS011;6529;50.566;9.774;2023-09-18T12:31:43;3.85;;;1.50;;
12925;SDS011;6529;50.566;9.774;2023-09-18T12:34:16;4.93;;;1.92;;
12925;SDS011;6529;50.566;9.774;2023-09-18T12:36:43;3.03;;;2.13;;
12925;SDS011;6529;50.566;9.774;2023-09-18T12:39:12;5.35;;;1.80;;
12925;SDS011;6529;50.566;9.774;2023-09-18T12:41:41;3.97;;;1.73;;
12925;SDS011;6529;50.566;9.774;2023-09-18T12:44:08;3.13;;;1.88;;
12925;SDS011;6529;50.566;9.774;2023-09-18T12:46:35;3.63;;;1.67;;
12925;SDS011;6529;50.566;9.774;2023-09-18T12:49:20;2.03;;;1.40;;
12925;SDS011;6529;50.566;9.774;2023-09-18T12:51:56;2.05;;;1.50;;
12925;SDS011;6529;50.566;9.774;2023-09-18T12:54:40;4.20;;;1.60;;
12925;SDS011;6529;50.566;9.774;2023-09-18T12:57:19;3.97;;;1.88;;
12925;SDS011;6529;50.566;9.774;2023-09-18T12:59:44;3.67;;;1.60;;
12925;SDS011;6529;50.566;9.774;2023-09-18T13:02:13;2.78;;;1.70;;
12925;SDS011;6529;50.566;9.774;2023-09-18T13:04:38;3.65;;;1.80;;
12925;SDS011;6529;50.566;9.774;2023-09-18T13:07:09;5.22;;;1.95;;
12925;SDS011;6529;50.566;9.774;2023-09-18T13:09:37;3.58;;;1.70;;
12925;SDS011;6529;50.566;9.774;2023-09-18T13:12:03;3.40;;;1.75;;
12925;SDS011;6529;50.566;9.774;2023-09-18T13:14:29;3.70;;;1.90;;
12925;SDS011;6529;50.566;9.774;2023-09-18T13:17:00;3.22;;;1.60;;
12925;SDS011;6529;50.566;9.774;2023-09-18T13:19:29;5.10;;;1.70;;
12925;SDS011;6529;50.566;9.774;2023-09-18T13:21:55;4.43;;;1.80;;
12925;SDS011;6529;50.566;9.774;2023-09-18T13:24:27;5.25;;;1.80;;
12925;SDS011;6529;50.566;9.774;2023-09-18T13:26:54;3.35;;;1.70;;
12925;SDS011;6529;50.566;9.774;2023-09-18T13:29:20;4.57;;;1.80;;
12925;SDS011;6529;50.566;9.774;2023-09-18T13:31:46;3.13;;;1.70;;
12925;SDS011;6529;50.566;9.774;2023-09-18T13:34:12;3.17;;;1.75;;
12925;SDS011;6529;50.566;9.774;2023-09-18T13:36:37;3.28;;;1.58;;
12925;SDS011;6529;50.566;9.774;2023-09-18T13:39:03;3.38;;;1.85;;
12925;SDS011;6529;50.566;9.774;2023-09-18T13:41:29;4.15;;;1.95;;
12925;SDS011;6529;50.566;9.774;2023-09-18T13:43:56;5.10;;;1.98;;
12925;SDS011;6529;50.566;9.774;2023-09-18T13:46:22;3.92;;;2.10;;
12925;SDS011;6529;50.566;9.774;2023-09-18T13:48:48;5.88;;;1.60;;
12925;SDS011;6529;50.566;9.774;2023-09-18T13:51:14;3.28;;;1.50;;
12925;SDS011;6529;50.566;9.774;2023-09-18T13:53:40;3.53;;;1.55;;
12925;SDS011;6529;50.566;9.774;2023-09-18T13:56:06;5.00;;;1.80;;
12925;SDS011;6529;50.566;9.774;2023-09-18T13:58:32;5.30;;;1.63;;
12925;SDS011;6529;50.566;9.774;2023-09-18T14:00:58;3.20;;;1.70;;
12925;SDS011;6529;50.566;9.774;2023-09-18T14:03:24;4.10;;;1.63;;
12925;SDS011;6529;50.566;9.774;2023-09-18T14:05:50;2.65;;;1.75;;
12925;SDS011;6529;50.566;9.774;2023-09-18T14:08:15;4.40;;;1.75;;
12925;SDS011;6529;50.566;9.774;2023-09-18T14:10:42;2.38;;;1.38;;
12925;SDS011;6529;50.566;9.774;2023-09-18T14:13:09;3.65;;;1.50;;
12925;SDS011;6529;50.566;9.774;2023-09-18T14:15:35;3.60;;;1.65;;
12925;SDS011;6529;50.566;9.774;2023-09-18T14:18:00;5.35;;;1.65;;
12925;SDS011;6529;50.566;9.774;2023-09-18T14:20:26;3.45;;;1.80;;
12925;SDS011;6529;50.566;9.774;2023-09-18T14:22:52;2.95;;;1.60;;
12925;SDS011;6529;50.566;9.774;2023-09-18T14:25:17;3.40;;;1.58;;
12925;SDS011;6529;50.566;9.774;2023-09-18T14:27:45;2.85;;;1.58;;
12925;SDS011;6529;50.566;9.774;2023-09-18T14:30:10;4.03;;;1.88;;
12925;SDS011;6529;50.566;9.774;2023-09-18T14:32:37;5.45;;;1.90;;
12925;SDS011;6529;50.566;9.774;2023-09-18T14:35:03;2.92;;;1.40;;
12925;SDS011;6529;50.566;9.774;2023-09-18T14:37:33;4.18;;;1.83;;
12925;SDS011;6529;50.566;9.774;2023-09-18T14:39:59;2.65;;;1.40;;
12925;SDS011;6529;50.566;9.774;2023-09-18T14:42:25;4.72;;;1.90;;
12925;SDS011;6529;50.566;9.774;2023-09-18T14:44:51;3.13;;;1.55;;
12925;SDS011;6529;50.566;9.774;2023-09-18T14:47:16;4.32;;;1.70;;
12925;SDS011;6529;50.566;9.774;2023-09-18T14:49:42;5.70;;;1.73;;
12925;SDS011;6529;50.566;9.774;2023-09-18T14:52:12;2.47;;;1.60;;
12925;SDS011;6529;50.566;9.774;2023-09-18T14:54:39;2.33;;;1.75;;
12925;SDS011;6529;50.566;9.774;2023-09-18T14:57:05;4.40;;;1.83;;
12925;SDS011;6529;50.566;9.774;2023-09-18T14:59:31;2.45;;;1.65;;
12925;SDS011;6529;50.566;9.774;2023-09-18T15:01:56;3.05;;;1.50;;
12925;SDS011;6529;50.566;9.774;2023-09-18T15:04:22;2.30;;;1.50;;
12925;SDS011;6529;50.566;9.774;2023-09-18T15:06:48;3.53;;;1.60;;
12925;SDS011;6529;50.566;9.774;2023-09-18T15:09:13;2.10;;;1.42;;
12925;SDS011;6529;50.566;9.774;2023-09-18T15:11:39;2.72;;;1.58;;
12925;SDS011;6529;50.566;9.774;2023-09-18T15:14:04;4.75;;;1.95;;
12925;SDS011;6529;50.566;9.774;2023-09-18T15:16:31;3.13;;;1.45;;
12925;SDS011;6529;50.566;9.774;2023-09-18T15:18:57;2.72;;;1.63;;
12925;SDS011;6529;50.566;9.774;2023-09-18T15:21:28;2.65;;;1.58;;